Terminal Aerodrome Forecast
Issued by NWS

Home | Current Version | Previous Version | Text Only | Print | Product List | Glossary On
Versions: 1 2 3 4 5 6 7 8 9 10 11 12 13 14 15 16 17 18 19 20
000
FTUS43 KILX 181700
TAFBMI
TAF
KBMI 181727Z 1818/1918 08009G16KT P6SM SCT040
     FM190000 09006KT P6SM SKC
     FM190900 12007KT 6SM BR SKC
     FM191400 15010KT P6SM FEW035=

USA.gov is the U.S. government's official web portal to all federal, state and local government web resources and services.